Crystal Springs, Nevada
Current Conditions -  °F | °C
As of 6:58 AM on Monday 22 Dec 2014 (Local Time) from KINS Reporting Station
Clear Clear  
Wind Chill: 38°   Ceiling: Unl
Heat Index: 38°   Visibility: 10mi
Dew Point: 34°   Wind: 0mph
Humidity: 86%   Direction: NA
Pressure: 30.12"   Gusts: NA
Location:  37.7776°N, 115.121°W
Report Text: KINS 221458Z AUTO 00000KT 10SM CLR 03/01 A3012 RMK AO2 SLP189 T00320010 55001
Loading
Personal Weather Stations






























Interactive Weather Map New forecast layout! Learn more

10-Day Weather Forecast

Advertisements
Track Severe Weather on mobile